Time;durP1;ratioP1;P1;durP2;ratioP2;P2;SDS_P1;SDS_P2;PMS_P1;PMS_P2;Temp;Humidity;BMP_temperature;BMP_pressure;BME280_temperature;BME280_humidity;BME280_pressure;Samples;Min_cycle;Max_cycle;Signal;HPM_P1;HPM_P2
2024/03/21 05:00:39;;;;;;;30.93;15.10;;;11.10;99.90;;;;;;5761977;23;20560;-67
2024/03/21 19:06:33;;;;;;;7.78;3.63;;;8.40;99.90;;;;;;6285276;22;20578;-69
2024/03/21 19:08:58;;;;;;;13.55;7.68;;;8.40;99.90;;;;;;6221292;22;1189010;-70
2024/03/21 19:11:25;;;;;;;6.80;4.57;;;8.30;99.90;;;;;;6269267;22;20913;-70
2024/03/21 19:13:51;;;;;;;6.90;3.10;;;8.30;99.90;;;;;;6271778;22;20179;-70
2024/03/21 19:16:19;;;;;;;6.47;3.50;;;8.30;99.90;;;;;;6273514;22;20193;-69
2024/03/21 19:18:45;;;;;;;7.97;5.32;;;8.30;99.90;;;;;;6273884;22;20660;-69
2024/03/21 19:21:11;;;;;;;10.33;5.60;;;8.30;99.90;;;;;;6280187;22;20207;-71
2024/03/21 19:23:39;;;;;;;9.10;5.80;;;8.30;99.90;;;;;;6271318;22;20199;-69
2024/03/21 19:26:05;;;;;;;5.32;4.60;;;8.30;99.90;;;;;;6273456;22;20561;-71
2024/03/21 19:28:31;;;;;;;6.40;5.47;;;8.20;99.90;;;;;;6274155;22;20504;-68
2024/03/21 19:30:58;;;;;;;4.90;4.50;;;8.20;99.90;;;;;;6273046;22;20176;-69
2024/03/21 19:33:24;;;;;;;6.25;5.20;;;8.10;99.90;;;;;;6273801;22;20466;-69
2024/03/21 19:35:50;;;;;;;7.87;6.60;;;8.10;99.90;;;;;;6272216;22;20210;-70
2024/03/21 19:38:16;;;;;;;12.23;8.68;;;8.10;99.90;;;;;;6273162;22;20188;-70
2024/03/21 19:40:44;;;;;;;14.40;6.73;;;8.00;99.90;;;;;;6272607;22;20286;-70
2024/03/21 19:43:10;;;;;;;4.60;4.20;;;8.00;99.90;;;;;;6273700;22;20177;-70
2024/03/21 19:45:38;;;;;;;3.80;3.53;;;7.90;99.90;;;;;;6271801;22;20747;-71
2024/03/21 19:48:04;;;;;;;7.47;6.00;;;7.90;99.90;;;;;;6272495;22;20180;-70
2024/03/21 19:50:31;;;;;;;9.00;5.95;;;7.90;99.90;;;;;;6273092;22;20239;-69
2024/03/21 19:52:58;;;;;;;7.15;5.70;;;7.90;99.90;;;;;;6274389;22;20591;-70
2024/03/21 19:55:24;;;;;;;5.03;4.40;;;7.80;99.90;;;;;;6274122;22;20471;-69
2024/03/21 19:57:52;;;;;;;8.07;4.97;;;7.80;99.90;;;;;;6273957;22;20180;-69
2024/03/21 20:00:19;;;;;;;3.97;3.75;;;7.80;99.90;;;;;;6272762;22;20184;-69
2024/03/21 20:02:45;;;;;;;6.95;4.00;;;7.90;99.90;;;;;;6271051;22;20259;-70
2024/03/21 20:05:11;;;;;;;4.97;4.23;;;7.90;99.90;;;;;;6269289;22;20659;-70
2024/03/21 20:07:37;;;;;;;5.43;4.82;;;7.90;99.90;;;;;;6273100;22;20185;-70
2024/03/21 20:10:05;;;;;;;4.77;4.37;;;7.90;99.90;;;;;;6271932;22;20252;-70
2024/03/21 20:12:30;;;;;;;11.48;8.63;;;7.80;99.90;;;;;;6273315;22;20235;-69
2024/03/21 20:14:59;;;;;;;14.30;7.40;;;7.90;99.90;;;;;;6272698;22;20665;-69
2024/03/21 20:17:24;;;;;;;12.45;10.10;;;7.90;99.90;;;;;;6272865;22;20246;-70
2024/03/21 20:19:52;;;;;;;10.80;9.13;;;7.80;99.90;;;;;;6271185;22;20189;-70
2024/03/21 20:22:18;;;;;;;5.50;5.10;;;7.80;99.90;;;;;;6271843;22;20786;-70
2024/03/21 20:24:46;;;;;;;6.63;5.93;;;7.80;99.90;;;;;;6271699;22;20204;-69
2024/03/21 20:27:12;;;;;;;6.85;6.25;;;7.80;99.90;;;;;;6273257;22;20261;-70
2024/03/21 20:29:39;;;;;;;10.13;6.63;;;7.80;99.90;;;;;;6273222;22;20211;-71
2024/03/21 20:32:09;;;;;;;11.65;5.93;;;7.80;99.90;;;;;;6283077;22;20226;-70
2024/03/21 20:34:36;;;;;;;11.00;5.05;;;7.80;99.90;;;;;;6271220;22;20648;-70
2024/03/21 20:37:02;;;;;;;7.40;4.90;;;7.70;99.90;;;;;;6270701;22;20203;-70
2024/03/21 20:39:32;;;;;;;4.88;4.55;;;7.70;99.90;;;;;;6273473;22;20179;-70
2024/03/21 20:41:58;;;;;;;5.68;5.18;;;7.70;99.90;;;;;;6272858;22;20161;-70
2024/03/21 20:44:25;;;;;;;7.10;4.20;;;7.70;99.90;;;;;;6271913;22;20228;-69
2024/03/21 20:46:51;;;;;;;5.85;5.45;;;7.80;99.90;;;;;;6268622;22;20498;-69
2024/03/21 20:49:19;;;;;;;12.77;5.15;;;7.80;99.90;;;;;;6271879;22;20476;-70
2024/03/21 20:51:45;;;;;;;6.07;5.50;;;7.80;99.90;;;;;;6271905;22;20181;-69
2024/03/21 20:54:12;;;;;;;5.80;5.30;;;7.80;99.90;;;;;;6272492;22;20175;-70
2024/03/21 20:56:38;;;;;;;7.90;6.00;;;7.80;99.90;;;;;;6271688;22;21034;-70
2024/03/21 20:59:06;;;;;;;6.05;5.35;;;7.90;99.90;;;;;;6272724;22;20199;-70
2024/03/21 21:01:32;;;;;;;4.90;4.40;;;7.90;99.90;;;;;;6268659;22;20215;-69
2024/03/21 21:03:58;;;;;;;3.90;3.40;;;7.90;99.90;;;;;;6272111;22;20648;-70
2024/03/21 21:06:25;;;;;;;6.65;4.47;;;7.90;99.90;;;;;;6271461;22;20207;-69
2024/03/21 21:08:52;;;;;;;7.80;4.45;;;7.90;99.90;;;;;;6281713;22;20503;-70
2024/03/21 21:11:20;;;;;;;4.72;3.72;;;7.90;99.90;;;;;;6271710;22;20180;-70
2024/03/21 21:13:46;;;;;;;4.95;4.55;;;8.00;99.90;;;;;;6271121;22;20234;-70
2024/03/21 21:16:12;;;;;;;10.82;4.75;;;8.00;99.90;;;;;;6271338;22;20205;-70
2024/03/21 21:18:39;;;;;;;4.20;4.00;;;8.00;99.90;;;;;;6272391;22;20267;-69
2024/03/21 21:21:05;;;;;;;4.70;4.18;;;8.00;99.90;;;;;;6271628;22;20636;-70
2024/03/21 21:23:33;;;;;;;4.03;3.47;;;8.00;99.90;;;;;;6270916;22;20187;-70
2024/03/21 21:26:01;;;;;;;3.53;3.33;;;8.00;99.90;;;;;;6271381;22;20446;-70
2024/03/21 21:28:29;;;;;;;4.50;4.10;;;8.00;99.90;;;;;;6272215;22;20197;-71
2024/03/21 21:30:58;;;;;;;4.85;4.05;;;8.00;99.90;;;;;;6280985;22;20176;-70
2024/03/21 21:33:24;;;;;;;5.70;4.07;;;8.00;99.90;;;;;;6280764;22;20192;-70
2024/03/21 21:35:57;;;;;;;12.63;4.05;;;8.00;99.90;;;;;;6270015;22;20227;-70
2024/03/21 21:38:24;;;;;;;8.73;3.63;;;8.00;99.90;;;;;;6272316;22;20176;-69
2024/03/21 21:40:55;;;;;;;4.65;3.47;;;8.10;99.90;;;;;;6282406;22;20177;-70
2024/03/21 21:43:22;;;;;;;4.95;4.55;;;8.00;99.90;;;;;;6271630;22;20207;-70
2024/03/21 21:45:48;;;;;;;4.68;3.17;;;8.10;99.90;;;;;;6281820;22;20280;-69
2024/03/21 21:48:15;;;;;;;8.18;3.60;;;8.10;99.90;;;;;;6285003;22;20164;-70
2024/03/21 21:50:41;;;;;;;3.95;3.40;;;8.10;99.90;;;;;;6275519;22;20188;-71
2024/03/21 21:53:10;;;;;;;5.15;3.75;;;8.10;99.90;;;;;;6275756;22;20253;-70
2024/03/21 21:55:35;;;;;;;7.78;3.80;;;8.10;99.90;;;;;;6277057;22;20290;-70
2024/03/21 21:58:04;;;;;;;4.37;2.93;;;8.10;99.90;;;;;;6275528;22;20211;-70
